Time;durP1;ratioP1;P1;durP2;ratioP2;P2;SDS_P1;SDS_P2;PMS_P1;PMS_P2;Temp;Humidity;BMP_temperature;BMP_pressure;BME280_temperature;BME280_humidity;BME280_pressure;Samples;Min_cycle;Max_cycle;Signal;HPM_P1;HPM_P2
2021/07/04 00:01:25;;;;;;;43.85;28.45;;;;;;;17.57;100.00;101177.19;3597819;22;21041;-64
2021/07/04 00:03:52;;;;;;;43.72;27.33;;;;;;;17.50;100.00;101179.75;3571781;40;20612;-65
2021/07/04 00:06:18;;;;;;;46.30;29.42;;;;;;;17.52;100.00;101175.84;3571617;40;20408;-63
2021/07/04 00:08:45;;;;;;;43.25;27.33;;;;;;;17.57;100.00;101174.47;3571796;40;20048;-65
2021/07/04 00:11:12;;;;;;;50.53;30.35;;;;;;;17.64;100.00;101189.09;3571884;40;20288;-64
2021/07/04 00:13:39;;;;;;;49.00;30.23;;;;;;;17.61;100.00;101170.38;3572062;40;20069;-63
2021/07/04 00:16:06;;;;;;;50.50;33.75;;;;;;;17.63;100.00;101174.59;3569783;39;20312;-64
2021/07/04 00:18:35;;;;;;;49.67;32.42;;;;;;;17.70;100.00;101180.22;3573223;40;20095;-65
2021/07/04 00:21:07;;;;;;;;;;;;;;;17.78;100.00;101180.16;3574974;40;20036;-66
2021/07/04 00:23:34;;;;;;;50.50;34.40;;;;;;;17.67;100.00;101169.66;3572081;40;19969;-63
2021/07/04 00:26:00;;;;;;;50.70;33.85;;;;;;;17.77;100.00;101172.16;3573884;40;20343;-66
2021/07/04 00:28:27;;;;;;;55.72;36.35;;;;;;;17.79;100.00;101165.53;3572558;40;20052;-63
2021/07/04 00:30:54;;;;;;;53.28;35.65;;;;;;;17.97;100.00;101161.75;3573179;40;20063;-64
2021/07/04 00:33:21;;;;;;;60.10;37.90;;;;;;;18.07;100.00;101154.22;3572181;40;20040;-63
2021/07/04 00:35:49;;;;;;;51.22;34.97;;;;;;;18.00;100.00;101148.59;3571476;40;20044;-64
2021/07/04 00:38:16;;;;;;;62.20;37.42;;;;;;;18.10;100.00;101153.84;3571961;40;20031;-63
2021/07/04 00:40:43;;;;;;;43.72;31.60;;;;;;;18.24;100.00;101154.97;3573494;40;20051;-63
2021/07/04 00:43:10;;;;;;;55.10;36.40;;;;;;;18.15;100.00;101156.03;3571822;40;20593;-63
2021/07/04 00:45:37;;;;;;;57.65;34.85;;;;;;;18.04;100.00;101149.97;3571771;40;20445;-66
2021/07/04 00:48:04;;;;;;;53.10;35.15;;;;;;;18.14;100.00;101154.34;3570873;40;20066;-63
2021/07/04 00:50:32;;;;;;;57.25;37.35;;;;;;;18.08;100.00;101155.03;3578066;40;20057;-63
2021/07/04 00:53:01;;;;;;;57.35;36.13;;;;;;;17.97;100.00;101150.84;3571956;40;20033;-63
2021/07/04 00:55:28;;;;;;;49.25;34.75;;;;;;;17.97;100.00;101148.13;3572502;40;20036;-64
2021/07/04 00:57:55;;;;;;;55.92;36.72;;;;;;;17.96;100.00;101150.00;3571308;40;20045;-66
2021/07/04 01:00:24;;;;;;;53.75;37.58;;;;;;;17.95;100.00;101145.59;3571461;40;20062;-63
2021/07/04 01:02:50;;;;;;;;;;;;;;;17.96;100.00;101150.00;3575939;39;20032;-65
2021/07/04 01:05:18;;;;;;;55.88;37.33;;;;;;;17.96;100.00;101146.41;3577280;39;19970;-65
2021/07/04 01:07:46;;;;;;;59.90;40.20;;;;;;;18.00;100.00;101147.78;3575957;40;20047;-64
2021/07/04 01:10:16;;;;;;;59.00;39.25;;;;;;;18.00;100.00;101143.16;3572898;40;20338;-63
2021/07/04 01:12:44;;;;;;;60.10;40.03;;;;;;;17.92;100.00;101134.19;3576608;39;20024;-63
2021/07/04 01:15:11;;;;;;;63.80;38.80;;;;;;;17.93;100.00;101130.44;3576910;40;20110;-65
2021/07/04 01:17:38;;;;;;;59.38;39.00;;;;;;;18.01;100.00;101135.84;3580338;39;20237;-63
2021/07/04 01:20:08;;;;;;;54.25;35.50;;;;;;;17.97;100.00;101137.25;3582887;39;20119;-63
2021/07/04 01:22:36;;;;;;;52.83;36.20;;;;;;;17.98;100.00;101133.50;3650174;22;20050;-64
2021/07/04 01:25:05;;;;;;;56.15;36.70;;;;;;;18.00;100.00;101132.28;3571478;40;20042;-63
2021/07/04 01:27:32;;;;;;;51.13;37.30;;;;;;;17.92;100.00;101139.63;3571672;40;20060;-63
2021/07/04 01:29:58;;;;;;;57.10;39.90;;;;;;;17.97;100.00;101132.63;3574648;40;20021;-63
2021/07/04 01:32:29;;;;;;;54.97;38.15;;;;;;;18.09;100.00;101130.34;3626731;22;20062;-61
2021/07/04 01:34:55;;;;;;;49.45;36.78;;;;;;;18.15;100.00;101120.63;3530027;40;20065;-65
2021/07/04 01:37:22;;;;;;;48.05;36.05;;;;;;;18.17;100.00;101119.41;3534347;40;20040;-65
2021/07/04 01:39:48;;;;;;;47.20;35.05;;;;;;;18.12;100.00;101112.81;3535776;40;20391;-63
2021/07/04 01:42:16;;;;;;;48.13;34.10;;;;;;;18.05;100.00;101115.41;3534963;40;20046;-62
2021/07/04 01:44:42;;;;;;;45.88;33.90;;;;;;;18.08;100.00;101106.88;3537209;40;20056;-62
2021/07/04 01:47:09;;;;;;;46.50;34.63;;;;;;;17.92;100.00;101109.69;3532332;40;20398;-62
2021/07/04 01:49:35;;;;;;;43.67;32.63;;;;;;;17.93;100.00;101103.22;3533500;40;20056;-62
2021/07/04 01:52:02;;;;;;;46.95;33.50;;;;;;;17.92;100.00;101112.41;3531391;40;20236;-63
2021/07/04 01:54:28;;;;;;;49.92;34.17;;;;;;;17.79;100.00;101116.53;3532571;40;20038;-62
2021/07/04 01:56:56;;;;;;;44.42;34.05;;;;;;;17.88;100.00;101111.06;3533781;40;20085;-62
2021/07/04 01:59:23;;;;;;;42.90;32.22;;;;;;;17.83;100.00;101106.16;3534968;40;20049;-62
2021/07/04 02:01:50;;;;;;;43.95;33.72;;;;;;;18.00;100.00;101104.19;3534406;40;20087;-64
2021/07/04 02:04:17;;;;;;;48.38;33.50;;;;;;;17.99;100.00;101099.75;3531596;40;20137;-64
2021/07/04 02:06:43;;;;;;;47.67;33.92;;;;;;;17.89;100.00;101096.38;3533047;40;20050;-64
2021/07/04 02:09:09;;;;;;;45.90;32.05;;;;;;;17.84;100.00;101105.97;3549171;40;20030;-63
2021/07/04 02:11:36;;;;;;;43.97;32.22;;;;;;;17.72;100.00;101107.38;3542484;40;20056;-64
2021/07/04 02:14:03;;;;;;;46.17;31.73;;;;;;;17.73;100.00;101106.34;3531376;40;20052;-63
2021/07/04 02:16:30;;;;;;;42.33;30.48;;;;;;;17.73;100.00;101109.06;3530755;40;20058;-63
2021/07/04 02:18:57;;;;;;;42.13;30.27;;;;;;;17.66;100.00;101110.81;3535124;40;20425;-64
2021/07/04 02:21:23;;;;;;;42.30;30.75;;;;;;;17.59;100.00;101096.19;3531944;40;20046;-63
2021/07/04 02:23:50;;;;;;;35.30;27.10;;;;;;;17.52;100.00;101091.47;3531989;40;20309;-63
2021/07/04 02:26:16;;;;;;;39.08;28.92;;;;;;;17.52;100.00;101090.63;3531206;40;20038;-63
2021/07/04 02:28:43;;;;;;;40.08;28.77;;;;;;;17.48;100.00;101092.84;3535994;40;20029;-63
2021/07/04 02:31:09;;;;;;;42.72;29.05;;;;;;;17.40;100.00;101098.31;3534887;40;20057;-63
2021/07/04 02:33:37;;;;;;;42.72;29.33;;;;;;;17.31;100.00;101094.78;3531135;40;20072;-64
2021/07/04 02:36:03;;;;;;;37.17;28.65;;;;;;;17.22;100.00;101093.09;3530735;40;20041;-63
2021/07/04 02:38:31;;;;;;;38.58;27.55;;;;;;;17.21;100.00;101098.69;3534532;40;20049;-62
2021/07/04 02:40:57;;;;;;;38.40;27.77;;;;;;;17.20;100.00;101107.91;3530287;40;20062;-63
2021/07/04 02:43:25;;;;;;;37.00;27.58;;;;;;;17.17;100.00;101100.94;3531555;40;20272;-63
2021/07/04 02:45:53;;;;;;;37.25;28.75;;;;;;;17.13;100.00;101108.56;3531281;40;20331;-66
2021/07/04 02:48:20;;;;;;;38.92;29.00;;;;;;;17.25;100.00;101109.06;3530935;40;21275;-65
2021/07/04 02:50:47;;;;;;;36.97;27.40;;;;;;;17.33;100.00;101097.31;3531191;40;20347;-63
2021/07/04 02:53:14;;;;;;;34.60;25.85;;;;;;;17.41;100.00;101099.16;3533275;40;20035;-64
2021/07/04 02:55:41;;;;;;;35.78;26.52;;;;;;;17.38;100.00;101085.91;3531895;40;20034;-63
2021/07/04 02:58:08;;;;;;;38.25;27.58;;;;;;;17.32;100.00;101095.63;3535039;40;20058;-63
2021/07/04 03:00:34;;;;;;;34.80;27.10;;;;;;;17.33;100.00;101089.16;3531773;40;20263;-64
2021/07/04 03:03:01;;;;;;;38.33;27.63;;;;;;;17.34;100.00;101093.56;3533223;40;20034;-64
2021/07/04 03:05:28;;;;;;;37.15;28.60;;;;;;;17.26;100.00;101093.59;3531932;40;20038;-62
2021/07/04 03:07:56;;;;;;;39.88;27.80;;;;;;;17.22;100.00;101093.09;3532871;40;20106;-63
2021/07/04 03:10:23;;;;;;;40.28;29.98;;;;;;;17.21;100.00;101093.25;3531597;40;20102;-62
2021/07/04 03:12:50;;;;;;;37.70;27.83;;;;;;;17.23;100.00;101096.69;3532325;40;20049;-62
2021/07/04 03:15:17;;;;;;;36.92;26.92;;;;;;;17.32;100.00;101104.63;3531387;40;20046;-63
2021/07/04 03:17:44;;;;;;;36.35;27.40;;;;;;;17.34;100.00;101101.72;3534022;40;20462;-62
2021/07/04 03:20:13;;;;;;;37.72;27.70;;;;;;;17.32;100.00;101095.63;3528705;40;20042;-63
2021/07/04 03:22:40;;;;;;;39.15;27.83;;;;;;;17.35;100.00;101100.72;3530411;40;20065;-62
2021/07/04 03:25:10;;;;;;;34.40;26.80;;;;;;;17.33;100.00;101095.44;3533996;40;20031;-63
2021/07/04 03:27:37;;;;;;;35.83;27.50;;;;;;;17.32;100.00;101090.19;3530467;40;20091;-65
2021/07/04 03:30:07;;;;;;;44.45;30.73;;;;;;;17.33;100.00;101092.72;3531467;40;20043;-63
2021/07/04 03:35:44;;;;;;;33.47;25.30;;;;;;;17.41;100.00;101088.28;3565102;22;1072278;-64
2021/07/04 03:38:11;;;;;;;37.20;27.63;;;;;;;17.41;100.00;101086.41;3554705;40;20119;-63
2021/07/04 03:40:39;;;;;;;34.30;27.52;;;;;;;17.41;100.00;101088.28;3558156;40;20277;-62
2021/07/04 03:43:06;;;;;;;35.15;27.08;;;;;;;17.45;100.00;101079.59;3556102;40;20748;-63
2021/07/04 03:45:32;;;;;;;31.80;24.33;;;;;;;17.41;100.00;101086.41;3557507;40;20072;-62
2021/07/04 03:47:59;;;;;;;35.33;26.33;;;;;;;17.47;100.00;101088.41;3558443;40;20041;-63
2021/07/04 03:50:25;;;;;;;40.67;29.13;;;;;;;17.43;100.00;101087.09;3557958;40;20063;-63
2021/07/04 03:52:54;;;;;;;33.08;25.60;;;;;;;17.64;100.00;101094.66;3560818;40;20037;-63
2021/07/04 03:55:20;;;;;;;35.22;26.00;;;;;;;17.68;100.00;101089.69;3558934;40;20045;-62
2021/07/04 03:57:48;;;;;;;30.58;24.40;;;;;;;17.54;100.00;101093.19;3558430;40;20327;-64
2021/07/04 04:00:15;;;;;;;35.30;27.00;;;;;;;17.57;100.00;101090.09;3570570;40;20047;-63
2021/07/04 04:02:42;;;;;;;27.92;23.00;;;;;;;17.56;100.00;101093.84;3574703;40;20049;-64
2021/07/04 04:05:10;;;;;;;31.67;25.10;;;;;;;17.56;100.00;101096.56;3575615;40;20037;-65
2021/07/04 04:07:36;;;;;;;32.10;24.85;;;;;;;17.61;100.00;101094.16;3574374;40;20299;-63
2021/07/04 04:10:04;;;;;;;31.35;25.23;;;;;;;17.62;100.00;101095.84;3575811;40;20025;-62
2021/07/04 04:12:30;;;;;;;33.33;24.92;;;;;;;17.51;100.00;101100.66;3562887;40;20029;-63
2021/07/04 04:15:00;;;;;;;35.78;27.08;;;;;;;17.47;100.00;101101.19;3559312;40;20041;-62
2021/07/04 04:17:26;;;;;;;31.20;25.77;;;;;;;17.59;100.00;101098.91;3558377;40;20040;-63
2021/07/04 04:19:53;;;;;;;29.67;24.55;;;;;;;17.68;100.00;101101.44;3559209;40;20055;-62
2021/07/04 04:22:19;;;;;;;29.77;25.55;;;;;;;17.68;100.00;101101.44;3558113;40;20611;-63
2021/07/04 04:24:46;;;;;;;28.95;23.85;;;;;;;17.69;100.00;101103.13;3558401;40;20041;-62
2021/07/04 04:27:13;;;;;;;29.80;23.17;;;;;;;17.68;100.00;101098.72;3559103;40;20068;-65
2021/07/04 04:29:39;;;;;;;29.92;23.95;;;;;;;17.61;100.00;101091.44;3559949;40;20057;-63
2021/07/04 04:32:10;;;;;;;27.08;22.80;;;;;;;17.58;100.00;101089.91;3556261;40;20618;-65
2021/07/04 04:34:37;;;;;;;31.35;24.05;;;;;;;17.61;100.00;101089.56;3555895;40;20043;-63
2021/07/04 04:37:05;;;;;;;29.27;23.17;;;;;;;17.65;100.00;101096.34;3555655;40;20335;-65
2021/07/04 04:39:32;;;;;;;28.30;22.65;;;;;;;17.65;100.00;101093.63;3561629;40;20047;-64
2021/07/04 04:41:59;;;;;;;27.08;23.15;;;;;;;17.68;100.00;101089.69;3560888;40;20081;-63
2021/07/04 04:44:25;;;;;;;30.38;23.42;;;;;;;17.59;100.00;101091.59;3558337;40;20053;-63
2021/07/04 04:46:52;;;;;;;32.83;24.63;;;;;;;17.55;100.00;101081.25;3560116;40;20039;-63
2021/07/04 04:49:19;;;;;;;31.35;23.60;;;;;;;17.51;100.00;101087.03;3557749;40;20053;-63
2021/07/04 04:51:46;;;;;;;34.05;26.17;;;;;;;17.54;100.00;101087.72;3561325;40;20063;-63
2021/07/04 04:54:12;;;;;;;35.08;26.23;;;;;;;17.69;100.00;101091.38;3557371;40;20041;-63
2021/07/04 04:56:39;;;;;;;30.92;24.90;;;;;;;17.69;100.00;101084.06;3559382;40;20039;-63
2021/07/04 04:59:05;;;;;;;32.85;24.42;;;;;;;17.84;100.00;101081.47;3558886;40;20575;-63
2021/07/04 05:01:32;;;;;;;42.20;28.30;;;;;;;17.65;100.00;101085.47;3557339;40;20051;-62
2021/07/04 05:03:59;;;;;;;44.65;29.30;;;;;;;17.48;100.00;101076.50;3560458;40;20041;-65
2021/07/04 05:06:26;;;;;;;44.90;31.30;;;;;;;17.50;100.00;101074.47;3563177;40;20068;-64
2021/07/04 05:08:53;;;;;;;48.67;31.45;;;;;;;17.50;100.00;101088.09;3571621;40;20416;-63
2021/07/04 05:11:19;;;;;;;51.95;33.97;;;;;;;17.49;100.00;101074.63;3570041;40;20033;-63
2021/07/04 05:13:46;;;;;;;57.13;34.63;;;;;;;17.55;100.00;101068.50;3572171;40;20043;-63
2021/07/04 05:16:12;;;;;;;55.00;32.38;;;;;;;17.66;100.00;101075.41;3572237;40;20307;-63
2021/07/04 05:18:39;;;;;;;61.55;37.08;;;;;;;17.79;100.00;101072.97;3567103;40;20381;-63
2021/07/04 05:21:06;;;;;;;60.17;36.65;;;;;;;17.85;100.00;101064.06;3563087;40;20036;-63
2021/07/04 05:23:34;;;;;;;66.13;38.05;;;;;;;17.94;100.00;101067.63;3559947;40;20332;-64
2021/07/04 05:26:00;;;;;;;68.22;38.50;;;;;;;17.94;100.00;101064.91;3564090;40;20033;-63
2021/07/04 05:28:28;;;;;;;62.08;38.50;;;;;;;18.11;100.00;101062.94;3562569;40;20049;-63
2021/07/04 05:30:55;;;;;;;62.47;36.90;;;;;;;17.98;100.00;101062.69;3560533;40;20087;-62
2021/07/04 05:33:21;;;;;;;63.03;37.63;;;;;;;18.13;100.00;101055.41;3556841;40;20040;-64
2021/07/04 05:38:45;;;;;;;62.42;36.45;;;;;;;18.31;100.00;101054.28;3600206;22;20084;-63
2021/07/04 05:41:12;;;;;;;61.08;38.15;;;;;;;18.13;100.00;101052.69;3579872;39;20058;-62
2021/07/04 05:43:40;;;;;;;57.55;37.13;;;;;;;18.20;100.00;101058.28;3577751;39;20399;-64
2021/07/04 05:46:07;;;;;;;56.30;34.67;;;;;;;18.15;100.00;101053.38;3576462;39;20051;-63
2021/07/04 05:48:35;;;;;;;56.78;36.00;;;;;;;18.23;100.00;101048.88;3578398;40;20072;-63
2021/07/04 05:51:02;;;;;;;64.27;37.17;;;;;;;18.40;100.00;101055.91;3579481;40;20028;-63
2021/07/04 05:56:00;;;;;;;63.10;37.97;;;;;;;18.50;100.00;101053.75;3598667;22;20052;-63
2021/07/04 05:58:27;;;;;;;58.45;37.63;;;;;;;18.64;100.00;101062.16;3568459;40;20128;-63
2021/07/04 06:00:53;;;;;;;53.55;35.70;;;;;;;18.65;100.00;101058.41;3582475;40;20402;-62
2021/07/04 06:05:49;;;;;;;;;;;;;;;18.93;100.00;101058.66;3617729;22;20062;-64
2021/07/04 06:08:15;;;;;;;61.22;37.40;;;;;;;19.16;100.00;101061.31;3572158;40;19942;-63
2021/07/04 06:10:44;;;;;;;52.92;34.45;;;;;;;18.97;100.00;101064.63;3573190;40;20031;-62
2021/07/04 06:13:12;;;;;;;;;;;;;;;19.34;100.00;101060.09;3575688;40;20041;-63
2021/07/04 06:15:39;;;;;;;50.25;33.33;;;;;;;19.66;100.00;101060.75;3575900;39;19944;-63
2021/07/04 06:18:05;;;;;;;50.88;33.13;;;;;;;19.41;100.00;101058.31;3573910;40;20061;-63
2021/07/04 06:20:32;;;;;;;52.28;33.83;;;;;;;19.45;100.00;101059.63;3576547;40;20641;-63
2021/07/04 06:22:59;;;;;;;55.17;33.78;;;;;;;19.10;100.00;101062.09;3576097;40;20387;-64
2021/07/04 06:25:25;;;;;;;54.05;35.92;;;;;;;18.89;100.00;101060.94;3576121;40;20084;-62
2021/07/04 06:27:52;;;;;;;54.47;35.95;;;;;;;19.21;100.00;101061.63;3575948;40;20044;-63
2021/07/04 06:30:20;;;;;;;58.53;36.85;;;;;;;19.36;100.00;101055.28;3575203;40;20031;-62
2021/07/04 06:32:47;;;;;;;53.63;34.67;;;;;;;19.70;100.00;101051.09;3575371;40;20273;-62
2021/07/04 06:35:14;;;;;;;57.00;36.70;;;;;;;19.36;100.00;101052.56;3574036;40;20325;-62
2021/07/04 06:37:41;;;;;;;50.42;34.45;;;;;;;19.49;100.00;101052.72;3578665;40;20036;-63
2021/07/04 06:40:09;;;;;;;52.13;33.20;;;;;;;19.55;100.00;101051.13;3575623;40;20451;-63
2021/07/04 06:42:35;;;;;;;51.80;33.30;;;;;;;19.78;100.00;101054.59;3572980;40;20034;-63
2021/07/04 06:45:03;;;;;;;49.22;33.33;;;;;;;20.05;100.00;101054.06;3578687;40;20318;-63
2021/07/04 06:47:30;;;;;;;49.85;33.60;;;;;;;20.21;100.00;101044.75;3574369;40;20056;-62
2021/07/04 06:49:57;;;;;;;52.17;35.65;;;;;;;20.14;100.00;101047.44;3573793;40;20098;-62
2021/07/04 06:52:23;;;;;;;49.42;34.40;;;;;;;20.32;100.00;101049.72;3575463;40;20067;-63
2021/07/04 06:57:27;;;;;;;47.00;32.97;;;;;;;20.31;100.00;101037.91;3642491;22;20041;-62
2021/07/04 06:59:56;;;;;;;48.88;32.67;;;;;;;20.46;100.00;101034.25;3571132;40;20274;-62
2021/07/04 07:02:22;;;;;;;46.58;34.10;;;;;;;20.59;100.00;101028.91;3569756;40;20064;-62
2021/07/04 07:04:50;;;;;;;46.17;33.25;;;;;;;20.35;100.00;101026.63;3569701;40;20052;-62
2021/07/04 07:07:17;;;;;;;42.60;30.98;;;;;;;20.53;100.00;101029.69;3568643;40;20049;-64
2021/07/04 07:09:44;;;;;;;46.53;31.95;;;;;;;20.87;100.00;101022.59;3568417;40;20047;-63
2021/07/04 07:12:10;;;;;;;45.33;31.77;;;;;;;20.74;100.00;101022.53;3569018;40;20046;-62
2021/07/04 07:14:37;;;;;;;45.25;31.30;;;;;;;20.39;100.00;101027.88;3575494;40;20044;-63
2021/07/04 07:17:04;;;;;;;43.42;30.80;;;;;;;20.50;100.00;101027.34;3569446;40;20088;-62
2021/07/04 07:19:31;;;;;;;40.47;29.33;;;;;;;20.49;100.00;101025.66;3571210;40;20375;-62
2021/07/04 07:21:58;;;;;;;42.22;29.48;;;;;;;20.61;100.00;101026.81;3568895;40;20036;-63
2021/07/04 07:24:25;;;;;;;40.33;29.73;;;;;;;20.49;100.00;101017.47;3571757;40;20056;-63
2021/07/04 07:26:52;;;;;;;43.10;30.08;;;;;;;20.20;100.00;101027.53;3568135;40;20052;-62
2021/07/04 07:29:18;;;;;;;45.97;30.38;;;;;;;20.37;100.00;101024.50;3568823;40;20106;-63
2021/07/04 07:31:45;;;;;;;41.28;29.10;;;;;;;20.65;100.00;101017.16;3569572;40;20051;-62
2021/07/04 07:34:12;;;;;;;38.40;27.58;;;;;;;20.95;100.00;101006.06;3568865;40;21387;-63
2021/07/04 07:36:39;;;;;;;37.75;28.27;;;;;;;21.40;100.00;101002.91;3568245;40;20071;-63
2021/07/04 07:39:07;;;;;;;34.40;25.13;;;;;;;21.78;100.00;101001.59;3566225;40;20040;-62
2021/07/04 07:41:34;;;;;;;33.35;26.88;;;;;;;22.54;100.00;100998.53;3572572;40;20064;-63
2021/07/04 07:44:00;;;;;;;35.83;25.90;;;;;;;22.78;100.00;101009.06;3570185;40;20048;-62
2021/07/04 07:46:27;;;;;;;30.60;24.60;;;;;;;22.58;100.00;101007.16;3569236;40;20057;-62
2021/07/04 07:48:54;;;;;;;34.38;24.05;;;;;;;22.85;100.00;101012.59;3569866;40;20386;-63
2021/07/04 07:51:20;;;;;;;27.02;22.70;;;;;;;22.09;100.00;101011.13;3570255;40;20036;-63
2021/07/04 07:53:47;;;;;;;31.70;24.15;;;;;;;21.65;100.00;101003.22;3571367;40;20037;-63
2021/07/04 07:56:14;;;;;;;32.08;24.92;;;;;;;21.62;100.00;101000.91;3571635;40;20074;-63
2021/07/04 07:58:43;;;;;;;32.55;25.40;;;;;;;21.53;100.00;101000.22;3567218;40;20051;-64
2021/07/04 08:01:10;;;;;;;32.17;25.33;;;;;;;21.19;100.00;101003.84;3568469;40;20068;-64
2021/07/04 08:03:37;;;;;;;34.20;25.05;;;;;;;21.38;100.00;100998.66;3567871;40;20037;-61
2021/07/04 08:06:04;;;;;;;32.47;25.35;;;;;;;21.37;100.00;101008.78;3570576;40;20048;-63
2021/07/04 08:08:31;;;;;;;34.72;25.80;;;;;;;21.28;100.00;100999.91;3571966;40;20417;-63
2021/07/04 08:10:57;;;;;;;35.50;26.25;;;;;;;21.04;100.00;101001.25;3569245;40;20036;-63
2021/07/04 08:13:25;;;;;;;31.08;24.10;;;;;;;21.09;100.00;101004.22;3567890;40;20305;-61
2021/07/04 08:15:51;;;;;;;31.25;24.40;;;;;;;21.55;100.00;100994.53;3569297;40;20039;-62
2021/07/04 08:18:19;;;;;;;29.40;22.75;;;;;;;21.74;100.00;100994.81;3577251;40;20047;-62
2021/07/04 08:20:45;;;;;;;31.95;22.95;;;;;;;22.35;100.00;100986.50;3568720;40;20565;-62
2021/07/04 08:23:12;;;;;;;26.75;21.83;;;;;;;22.33;100.00;100987.75;3569819;40;20047;-62
2021/07/04 08:25:38;;;;;;;26.40;20.45;;;;;;;21.84;100.00;100984.31;3571342;40;20688;-64
2021/07/04 08:28:05;;;;;;;25.65;20.63;;;;;;;21.74;100.00;100981.13;3569098;40;20055;-62
2021/07/04 08:30:33;;;;;;;24.88;20.23;;;;;;;21.64;100.00;100987.00;3571714;40;20322;-64
2021/07/04 08:32:59;;;;;;;27.63;21.80;;;;;;;21.74;100.00;100981.97;3570576;40;20025;-64
2021/07/04 08:35:26;;;;;;;30.98;23.70;;;;;;;21.24;100.00;100984.09;3569837;40;20540;-62
2021/07/04 08:37:52;;;;;;;28.35;22.02;;;;;;;20.99;100.00;100984.59;3567871;39;20049;-62
2021/07/04 08:40:19;;;;;;;30.42;22.10;;;;;;;20.94;100.00;100987.94;3569233;40;20044;-62
2021/07/04 08:42:45;;;;;;;31.92;23.27;;;;;;;20.93;100.00;100975.28;3569368;40;20033;-62
2021/07/04 08:45:13;;;;;;;29.55;23.80;;;;;;;20.96;100.00;100991.28;3571041;40;20048;-62
2021/07/04 08:47:41;;;;;;;27.60;22.52;;;;;;;20.90;100.00;100981.16;3571556;40;20045;-62
2021/07/04 08:50:09;;;;;;;28.80;22.45;;;;;;;21.23;100.00;100972.31;3571601;40;20100;-62
2021/07/04 08:52:36;;;;;;;31.10;22.37;;;;;;;21.70;100.00;100973.31;3569774;40;20264;-62
2021/07/04 08:55:04;;;;;;;27.00;21.85;;;;;;;22.09;100.00;100978.25;3569342;40;20048;-62
2021/07/04 08:57:30;;;;;;;25.02;19.95;;;;;;;22.32;100.00;100975.97;3572416;40;20052;-63
2021/07/04 08:59:57;;;;;;;26.50;20.77;;;;;;;22.81;100.00;100978.44;3570910;40;20265;-62
2021/07/04 09:02:31;;;;;;;27.40;21.83;;;;;;;22.99;100.00;100975.84;3570183;40;20053;-61
2021/07/04 09:05:01;;;;;;;26.13;21.52;;;;;;;22.81;100.00;100964.72;3570899;40;20047;-61
2021/07/04 09:07:28;;;;;;;23.58;20.33;;;;;;;22.22;100.00;100968.13;3569214;40;20087;-62
2021/07/04 09:09:59;;;;;;;26.02;19.60;;;;;;;22.35;100.00;100967.31;3567713;40;20097;-63
2021/07/04 09:12:36;;;;;;;24.08;18.52;;;;;;;22.09;100.00;100967.28;3568585;40;20051;-62
2021/07/04 09:15:09;;;;;;;19.42;15.95;;;;;;;21.68;100.00;100958.97;3569795;40;20029;-64
2021/07/04 09:17:37;;;;;;;24.15;20.02;;;;;;;21.95;100.00;100958.19;3575302;40;20039;-62
2021/07/04 09:20:10;;;;;;;21.88;17.85;;;;;;;22.28;100.00;100958.19;3567383;40;20037;-62
2021/07/04 09:22:39;;;;;;;21.25;17.60;;;;;;;21.97;100.00;100947.88;3572040;40;20037;-62
2021/07/04 09:25:11;;;;;;;23.25;19.25;;;;;;;22.10;100.00;100961.59;3568876;40;20056;-63
2021/07/04 09:27:38;;;;;;;21.25;17.25;;;;;;;22.66;100.00;100957.56;3570933;40;20399;-62
2021/07/04 09:30:09;;;;;;;18.75;15.98;;;;;;;22.99;100.00;100945.66;3567887;40;20033;-62
2021/07/04 09:32:36;;;;;;;18.52;15.73;;;;;;;23.17;100.00;100947.72;3570351;40;20039;-63
2021/07/04 09:35:06;;;;;;;16.85;14.38;;;;;;;22.66;100.00;100945.72;3572709;40;20024;-62
2021/07/04 09:37:35;;;;;;;17.73;13.95;;;;;;;22.74;100.00;100948.25;3572400;40;20059;-64
2021/07/04 09:40:22;;;;;;;16.05;13.45;;;;;;;22.75;100.00;100939.81;3568559;40;20322;-62
2021/07/04 09:43:06;;;;;;;18.27;15.25;;;;;;;23.32;100.00;100933.72;3569316;40;20052;-63
2021/07/04 09:45:47;;;;;;;23.58;18.42;;;;;;;22.92;100.00;100940.19;3570730;40;20081;-62
2021/07/04 09:48:15;;;;;;;18.95;15.60;;;;;;;23.18;100.00;100938.44;3569091;40;20138;-64
2021/07/04 09:50:45;;;;;;;17.58;14.63;;;;;;;24.00;100.00;100940.50;3571736;40;20074;-62
2021/07/04 09:53:12;;;;;;;15.38;13.48;;;;;;;24.01;100.00;100936.66;3571996;40;20410;-62
2021/07/04 09:55:39;;;;;;;18.20;14.25;;;;;;;23.58;100.00;100932.72;3571905;40;20057;-62
2021/07/04 09:58:08;;;;;;;17.48;12.40;;;;;;;23.67;100.00;100930.53;3571019;40;20054;-63
2021/07/04 10:00:36;;;;;;;19.30;14.50;;;;;;;24.17;100.00;100931.69;3570094;40;20060;-62
2021/07/04 10:03:12;;;;;;;18.58;15.80;;;;;;;24.31;100.00;100920.34;3567016;40;20296;-64
2021/07/04 10:05:41;;;;;;;21.33;16.02;;;;;;;23.63;100.00;100923.84;3572943;40;20035;-62
2021/07/04 10:08:26;;;;;;;21.08;15.18;;;;;;;24.07;100.00;100913.81;3576072;40;20039;-64
2021/07/04 10:10:56;;;;;;;17.48;14.65;;;;;;;23.72;100.00;100919.75;3570751;40;20045;-62
2021/07/04 10:13:23;;;;;;;17.08;14.13;;;;;;;23.52;100.00;100916.28;3573747;40;20056;-61
2021/07/04 10:15:50;;;;;;;16.73;13.98;;;;;;;23.84;100.00;100908.88;3578426;40;20048;-62
2021/07/04 10:18:18;;;;;;;18.55;14.80;;;;;;;24.32;100.00;100907.41;3569278;40;20045;-62
2021/07/04 10:20:45;;;;;;;18.30;14.60;;;;;;;23.99;100.00;100911.31;3572692;40;20037;-63
2021/07/04 10:23:13;;;;;;;16.88;13.23;;;;;;;23.86;100.00;100905.94;3571190;40;20618;-61
2021/07/04 10:25:43;;;;;;;16.92;13.93;;;;;;;23.62;100.00;100905.66;3575841;40;20033;-60
2021/07/04 10:28:11;;;;;;;18.48;15.13;;;;;;;23.41;100.00;100907.69;3575344;40;20035;-60
2021/07/04 10:30:38;;;;;;;19.40;15.73;;;;;;;23.37;100.00;100913.84;3584962;40;20032;-59
2021/07/04 10:33:14;;;;;;;19.58;15.23;;;;;;;24.22;100.00;100904.34;3572278;40;20056;-60
2021/07/04 10:35:51;;;;;;;15.63;13.50;;;;;;;24.80;100.00;100895.72;3569183;40;20045;-61
2021/07/04 10:38:19;;;;;;;16.73;13.45;;;;;;;24.77;100.00;100896.19;3578681;40;20045;-59
2021/07/04 10:40:47;;;;;;;17.50;14.48;;;;;;;24.44;100.00;100893.75;3575365;40;20039;-61
2021/07/04 10:43:47;;;;;;;16.85;15.00;;;;;;;24.31;100.00;100892.00;3571112;40;20041;-60
2021/07/04 10:46:14;;;;;;;19.30;14.90;;;;;;;24.04;100.00;100889.50;3574641;40;20055;-60
2021/07/04 10:48:53;;;;;;;15.77;14.07;;;;;;;24.33;100.00;100880.78;3575506;40;20078;-59
2021/07/04 10:51:20;;;;;;;17.35;14.65;;;;;;;24.08;100.00;100882.47;3573700;40;20044;-59
2021/07/04 10:53:49;;;;;;;16.27;13.93;;;;;;;24.01;100.00;100870.69;3571271;40;20039;-60
2021/07/04 10:56:43;;;;;;;17.10;14.43;;;;;;;24.52;100.00;100870.63;3571668;40;21356;-59
2021/07/04 10:59:11;;;;;;;16.08;13.40;;;;;;;25.07;100.00;100865.09;3573412;40;20152;-59
2021/07/04 11:01:56;;;;;;;17.75;14.02;;;;;;;25.42;100.00;100856.16;3574506;40;20393;-59
2021/07/04 11:04:52;;;;;;;16.77;13.20;;;;;;;26.25;100.00;100853.56;3575026;40;20068;-60
2021/07/04 11:07:19;;;;;;;18.33;14.18;;;;;;;25.66;100.00;100853.47;3570851;40;20045;-60
2021/07/04 11:10:18;;;;;;;14.93;13.35;;;;;;;24.99;100.00;100843.41;3579184;40;20073;-60
2021/07/04 11:12:46;;;;;;;15.20;12.57;;;;;;;25.28;100.00;100840.88;3570914;40;20060;-59
2021/07/04 11:15:27;;;;;;;13.47;12.03;;;;;;;25.30;100.00;100844.25;3570456;40;20047;-60
2021/07/04 11:18:08;;;;;;;15.13;13.52;;;;;;;24.95;100.00;100836.69;3574376;40;20282;-60
2021/07/04 11:20:57;;;;;;;15.25;13.40;;;;;;;24.68;100.00;100839.78;3574368;40;20083;-60